Time;durP1;ratioP1;P1;durP2;ratioP2;P2;SDS_P1;SDS_P2;PMS_P1;PMS_P2;Temp;Humidity;BMP_temperature;BMP_pressure;BME280_temperature;BME280_humidity;BME280_pressure;Samples;Min_cycle;Max_cycle;Signal;HPM_P1;HPM_P2
2021/07/02 00:01:06;;;;;;;;;14.50;14.50;;;;;;;;5065236;28;8816;-79
2021/07/02 00:03:35;;;;;;;;;14.75;14.75;;;;;;;;5047388;28;8986;-79
2021/07/02 00:06:05;;;;;;;;;18.00;18.00;;;;;;;;5048493;28;9668;-82
2021/07/02 00:08:33;;;;;;;;;16.00;13.25;;;;;;;;5081148;28;8925;-80
2021/07/02 00:11:00;;;;;;;;;17.25;15.75;;;;;;;;5058485;28;9002;-81
2021/07/02 00:13:27;;;;;;;;;17.75;14.75;;;;;;;;5065854;28;8856;-80
2021/07/02 00:15:55;;;;;;;;;13.75;13.75;;;;;;;;5065532;28;8868;-81
2021/07/02 00:18:22;;;;;;;;;15.00;14.25;;;;;;;;5066936;28;8828;-82
2021/07/02 00:20:51;;;;;;;;;21.75;16.00;;;;;;;;5064618;28;9640;-82
2021/07/02 00:23:18;;;;;;;;;18.50;16.00;;;;;;;;5065774;28;9030;-86
2021/07/02 00:25:45;;;;;;;;;17.00;15.00;;;;;;;;5065103;28;8852;-82
2021/07/02 00:28:13;;;;;;;;;22.50;18.25;;;;;;;;5048615;28;8909;-84
2021/07/02 00:30:40;;;;;;;;;15.00;14.50;;;;;;;;5046783;28;8804;-85
2021/07/02 00:33:07;;;;;;;;;20.50;17.00;;;;;;;;5065486;28;8844;-84
2021/07/02 00:35:35;;;;;;;;;15.25;14.50;;;;;;;;5066535;28;8998;-85
2021/07/02 00:38:03;;;;;;;;;16.25;15.00;;;;;;;;5065253;28;8866;-81
2021/07/02 00:40:30;;;;;;;;;15.50;14.50;;;;;;;;5066384;28;8879;-82
2021/07/02 00:42:58;;;;;;;;;14.50;14.50;;;;;;;;5064555;28;8941;-83
2021/07/02 00:45:25;;;;;;;;;16.25;14.50;;;;;;;;5064326;28;8864;-84
2021/07/02 00:47:52;;;;;;;;;15.00;15.00;;;;;;;;5046370;28;8864;-81
2021/07/02 00:50:20;;;;;;;;;17.25;17.25;;;;;;;;5065302;28;8903;-83
2021/07/02 00:52:47;;;;;;;;;18.75;16.75;;;;;;;;5065549;28;8829;-81
2021/07/02 00:55:16;;;;;;;;;17.50;16.25;;;;;;;;5047609;28;8982;-83
2021/07/02 00:57:45;;;;;;;;;15.25;14.00;;;;;;;;5046361;28;8884;-81
2021/07/02 01:00:13;;;;;;;;;17.25;16.00;;;;;;;;5064827;28;8874;-80
2021/07/02 01:02:42;;;;;;;;;19.75;17.00;;;;;;;;5065004;28;8874;-80
2021/07/02 01:05:11;;;;;;;;;16.75;16.75;;;;;;;;5063681;28;8938;-78
2021/07/02 01:07:39;;;;;;;;;14.75;14.75;;;;;;;;5042525;28;8875;-76
2021/07/02 01:10:07;;;;;;;;;11.50;11.50;;;;;;;;5080420;28;8863;-83
2021/07/02 01:12:36;;;;;;;;;15.50;15.50;;;;;;;;5064875;28;8872;-79
2021/07/02 01:15:04;;;;;;;;;13.75;13.75;;;;;;;;5048272;28;8894;-83
2021/07/02 01:17:31;;;;;;;;;14.75;14.75;;;;;;;;5063268;28;8876;-84
2021/07/02 01:19:58;;;;;;;;;15.50;15.50;;;;;;;;5064553;28;8878;-80
2021/07/02 01:22:28;;;;;;;;;11.75;11.75;;;;;;;;5063591;28;8921;-79
2021/07/02 01:24:56;;;;;;;;;12.00;12.00;;;;;;;;5065006;28;8871;-78
2021/07/02 01:27:24;;;;;;;;;16.25;14.25;;;;;;;;5064492;28;8884;-82
2021/07/02 01:29:52;;;;;;;;;14.25;13.00;;;;;;;;5064462;28;8914;-78
2021/07/02 01:32:20;;;;;;;;;14.75;13.75;;;;;;;;5063916;28;8931;-78
2021/07/02 01:34:47;;;;;;;;;13.00;13.00;;;;;;;;5062047;28;10115;-81
2021/07/02 01:37:14;;;;;;;;;14.25;12.75;;;;;;;;5047777;28;9001;-78
2021/07/02 01:39:43;;;;;;;;;12.75;12.75;;;;;;;;5063250;28;9785;-81
2021/07/02 01:42:11;;;;;;;;;10.25;10.25;;;;;;;;5062523;28;8861;-79
2021/07/02 01:44:40;;;;;;;;;10.50;10.50;;;;;;;;5063642;28;8910;-80
2021/07/02 01:47:08;;;;;;;;;10.75;10.75;;;;;;;;5062919;28;8864;-77
2021/07/02 01:49:35;;;;;;;;;13.50;11.75;;;;;;;;5064712;28;8964;-79
2021/07/02 01:52:02;;;;;;;;;13.50;12.00;;;;;;;;5063654;28;8963;-78
2021/07/02 01:54:30;;;;;;;;;14.75;13.25;;;;;;;;5063710;28;8874;-80
2021/07/02 01:56:58;;;;;;;;;10.00;10.00;;;;;;;;5062519;28;8985;-81
2021/07/02 01:59:25;;;;;;;;;20.50;15.50;;;;;;;;5064263;28;8856;-83
2021/07/02 02:01:53;;;;;;;;;15.50;13.50;;;;;;;;5062322;28;8823;-82
2021/07/02 02:04:20;;;;;;;;;18.75;17.25;;;;;;;;5064128;28;8856;-78
2021/07/02 02:06:47;;;;;;;;;21.75;19.75;;;;;;;;5064433;28;8855;-78
2021/07/02 02:09:14;;;;;;;;;15.75;13.50;;;;;;;;5061873;28;8872;-79
2021/07/02 02:11:42;;;;;;;;;18.25;15.50;;;;;;;;5064840;28;8994;-82
2021/07/02 02:14:11;;;;;;;;;14.50;14.50;;;;;;;;5062115;28;8899;-79
2021/07/02 02:16:40;;;;;;;;;16.50;16.50;;;;;;;;5063723;28;8875;-83
2021/07/02 02:19:08;;;;;;;;;13.75;13.75;;;;;;;;5062508;28;8875;-80
2021/07/02 02:21:35;;;;;;;;;13.00;13.00;;;;;;;;5063877;28;8999;-81
2021/07/02 02:24:02;;;;;;;;;15.00;15.00;;;;;;;;5063941;28;8832;-83
2021/07/02 02:26:30;;;;;;;;;13.50;12.50;;;;;;;;5064507;28;8849;-84
2021/07/02 02:28:57;;;;;;;;;17.50;14.00;;;;;;;;5068486;28;8876;-85
2021/07/02 02:31:26;;;;;;;;;14.50;13.50;;;;;;;;5079242;28;8897;-83
2021/07/02 02:33:54;;;;;;;;;17.00;14.75;;;;;;;;5063703;28;8876;-81
2021/07/02 02:36:21;;;;;;;;;15.75;15.00;;;;;;;;5063612;28;8860;-79
2021/07/02 02:38:49;;;;;;;;;18.00;16.00;;;;;;;;5063851;28;8994;-80
2021/07/02 02:41:16;;;;;;;;;18.67;16.00;;;;;;;;5063788;28;8860;-79
2021/07/02 02:43:43;;;;;;;;;19.33;17.67;;;;;;;;5061908;28;8955;-85
2021/07/02 02:46:10;;;;;;;;;15.75;15.75;;;;;;;;5068397;28;9042;-79
2021/07/02 02:48:39;;;;;;;;;23.00;22.67;;;;;;;;5058283;28;8872;-81
2021/07/02 02:51:07;;;;;;;;;25.00;22.00;;;;;;;;5063952;28;9096;-79
2021/07/02 02:53:34;;;;;;;;;24.67;24.67;;;;;;;;5062299;28;9224;-83
2021/07/02 02:56:02;;;;;;;;;21.67;20.67;;;;;;;;5063263;28;9046;-80
2021/07/02 02:58:29;;;;;;;;;17.75;17.75;;;;;;;;5064074;28;9796;-81
2021/07/02 03:00:56;;;;;;;;;27.00;25.00;;;;;;;;5062730;28;8792;-83
2021/07/02 03:03:23;;;;;;;;;16.67;16.67;;;;;;;;5063425;28;9125;-81
2021/07/02 03:05:52;;;;;;;;;22.33;20.33;;;;;;;;5062747;28;9000;-80
2021/07/02 03:08:20;;;;;;;;;14.75;14.75;;;;;;;;5053446;28;8964;-80
2021/07/02 03:10:47;;;;;;;;;23.75;19.25;;;;;;;;5043519;28;8874;-79
2021/07/02 03:13:14;;;;;;;;;23.25;21.75;;;;;;;;5064055;28;8896;-78
2021/07/02 03:15:42;;;;;;;;;21.75;21.75;;;;;;;;5044536;28;8844;-82
2021/07/02 03:18:09;;;;;;;;;17.00;17.00;;;;;;;;5060567;28;8888;-84
2021/07/02 03:20:37;;;;;;;;;24.00;24.00;;;;;;;;5063527;28;8857;-83
2021/07/02 03:23:05;;;;;;;;;24.00;23.50;;;;;;;;5061054;28;8880;-80
2021/07/02 03:25:33;;;;;;;;;15.50;13.00;;;;;;;;5063289;28;8852;-85
2021/07/02 03:28:00;;;;;;;;;21.00;20.75;;;;;;;;5062581;28;8926;-78
2021/07/02 03:30:27;;;;;;;;;23.25;22.75;;;;;;;;5062581;28;8778;-79
2021/07/02 03:32:54;;;;;;;;;21.00;21.00;;;;;;;;5062465;28;8861;-78
2021/07/02 03:35:22;;;;;;;;;24.75;23.00;;;;;;;;5062794;28;8868;-83
2021/07/02 03:37:49;;;;;;;;;31.50;23.75;;;;;;;;5062148;28;8974;-78
2021/07/02 03:40:18;;;;;;;;;17.00;15.00;;;;;;;;5062166;28;8970;-78
2021/07/02 03:42:45;;;;;;;;;22.00;22.00;;;;;;;;5062902;28;8844;-79
2021/07/02 03:45:13;;;;;;;;;20.00;17.50;;;;;;;;5061209;28;8869;-78
2021/07/02 03:47:40;;;;;;;;;20.25;20.25;;;;;;;;5063110;28;8894;-79
2021/07/02 03:50:08;;;;;;;;;22.00;20.75;;;;;;;;5061657;28;8864;-82
2021/07/02 03:52:35;;;;;;;;;19.75;19.75;;;;;;;;5045035;28;8852;-78
2021/07/02 03:55:03;;;;;;;;;20.50;19.00;;;;;;;;5063278;28;8987;-81
2021/07/02 03:57:32;;;;;;;;;20.25;18.25;;;;;;;;5060911;28;8884;-83
2021/07/02 04:00:00;;;;;;;;;20.00;19.75;;;;;;;;5045438;28;8842;-85
2021/07/02 04:02:29;;;;;;;;;21.25;21.25;;;;;;;;5060588;28;9658;-81
2021/07/02 04:04:56;;;;;;;;;14.00;14.00;;;;;;;;5061974;28;8967;-79
2021/07/02 04:07:25;;;;;;;;;16.75;16.75;;;;;;;;5061022;28;9043;-93
2021/07/02 04:09:52;;;;;;;;;16.00;16.00;;;;;;;;5062846;28;8871;-82
2021/07/02 04:12:20;;;;;;;;;22.75;20.50;;;;;;;;5059265;28;10198;-86
2021/07/02 04:14:49;;;;;;;;;21.50;19.00;;;;;;;;5044731;28;8873;-88
2021/07/02 04:17:16;;;;;;;;;20.75;19.50;;;;;;;;5063619;28;8867;-84
2021/07/02 04:19:43;;;;;;;;;18.25;18.25;;;;;;;;5062287;28;8890;-86
2021/07/02 04:22:11;;;;;;;;;14.75;14.75;;;;;;;;5063710;28;9090;-84
2021/07/02 04:24:38;;;;;;;;;20.00;17.75;;;;;;;;5060702;28;8864;-82
2021/07/02 04:27:05;;;;;;;;;16.25;16.25;;;;;;;;5066320;28;8987;-82
2021/07/02 04:29:33;;;;;;;;;15.25;14.25;;;;;;;;5067058;28;9011;-84
2021/07/02 04:32:01;;;;;;;;;18.25;16.25;;;;;;;;5065749;28;8821;-82
2021/07/02 04:34:29;;;;;;;;;19.00;17.50;;;;;;;;5048995;28;8890;-80
2021/07/02 04:36:56;;;;;;;;;17.00;17.00;;;;;;;;5065770;28;8969;-89
2021/07/02 04:39:24;;;;;;;;;14.75;14.75;;;;;;;;5067460;28;8884;-80
2021/07/02 04:41:51;;;;;;;;;18.00;17.50;;;;;;;;5065481;28;8856;-81
2021/07/02 04:44:18;;;;;;;;;20.00;18.75;;;;;;;;5062202;28;8863;-84
2021/07/02 04:46:45;;;;;;;;;19.00;17.75;;;;;;;;5065060;28;9617;-85
2021/07/02 04:49:14;;;;;;;;;15.50;15.50;;;;;;;;5066570;28;8877;-81
2021/07/02 04:51:41;;;;;;;;;18.50;14.25;;;;;;;;5066365;28;8967;-83
2021/07/02 04:54:09;;;;;;;;;21.00;16.75;;;;;;;;5065815;28;8857;-82
2021/07/02 04:56:36;;;;;;;;;14.00;14.00;;;;;;;;5066434;28;8860;-85
2021/07/02 04:59:04;;;;;;;;;16.25;16.25;;;;;;;;5065680;28;8883;-82
2021/07/02 05:01:31;;;;;;;;;13.75;13.75;;;;;;;;5065975;28;8823;-86
2021/07/02 05:03:58;;;;;;;;;15.00;15.00;;;;;;;;5064421;28;8852;-88
2021/07/02 05:06:27;;;;;;;;;21.75;21.75;;;;;;;;5065913;28;8870;-82
2021/07/02 05:08:55;;;;;;;;;20.50;20.50;;;;;;;;5065757;28;8852;-83
2021/07/02 05:11:22;;;;;;;;;14.75;14.75;;;;;;;;5064340;28;8876;-83
2021/07/02 05:13:49;;;;;;;;;20.50;16.25;;;;;;;;5065737;28;8854;-80
2021/07/02 05:16:16;;;;;;;;;17.50;15.25;;;;;;;;5062325;28;8882;-82
2021/07/02 05:18:44;;;;;;;;;16.75;15.00;;;;;;;;5063449;28;9014;-82
2021/07/02 05:21:11;;;;;;;;;15.75;15.75;;;;;;;;5063733;28;8845;-83
2021/07/02 05:23:40;;;;;;;;;22.00;22.00;;;;;;;;5065694;28;9648;-84
2021/07/02 05:26:08;;;;;;;;;20.50;19.00;;;;;;;;5064730;28;8906;-84
2021/07/02 05:28:36;;;;;;;;;20.00;18.75;;;;;;;;5065805;28;8899;-81
2021/07/02 05:31:03;;;;;;;;;23.75;22.50;;;;;;;;5066404;28;8804;-87
2021/07/02 05:33:31;;;;;;;;;20.25;20.25;;;;;;;;5063337;28;9014;-85
2021/07/02 05:35:58;;;;;;;;;26.00;22.75;;;;;;;;5046994;28;9034;-85
2021/07/02 05:38:26;;;;;;;;;19.25;19.25;;;;;;;;5082049;28;8868;-87
2021/07/02 05:40:55;;;;;;;;;24.25;24.25;;;;;;;;5067304;28;8978;-86
2021/07/02 05:43:23;;;;;;;;;21.50;21.50;;;;;;;;5050043;28;8868;-88
2021/07/02 05:45:51;;;;;;;;;25.75;24.75;;;;;;;;5065502;28;8966;-84
2021/07/02 05:48:20;;;;;;;;;25.50;21.50;;;;;;;;5065290;28;8876;-83
2021/07/02 05:50:48;;;;;;;;;23.50;23.00;;;;;;;;5064682;28;8904;-80
2021/07/02 05:53:16;;;;;;;;;26.25;24.50;;;;;;;;5065716;28;8871;-81
2021/07/02 05:55:44;;;;;;;;;28.00;23.25;;;;;;;;5064049;28;8879;-80
2021/07/02 05:58:13;;;;;;;;;20.50;20.25;;;;;;;;5064762;28;8891;-82
2021/07/02 06:00:41;;;;;;;;;31.00;24.25;;;;;;;;5062581;28;8852;-80
2021/07/02 06:03:08;;;;;;;;;25.25;22.75;;;;;;;;5065273;28;8949;-82
2021/07/02 06:05:35;;;;;;;;;22.50;20.75;;;;;;;;5061403;28;8860;-83
2021/07/02 06:08:03;;;;;;;;;22.00;20.50;;;;;;;;5060620;28;8898;-81
2021/07/02 06:10:31;;;;;;;;;24.50;24.50;;;;;;;;5062403;28;8870;-83
2021/07/02 06:12:58;;;;;;;;;24.00;21.75;;;;;;;;5063179;28;8872;-83
2021/07/02 06:15:28;;;;;;;;;27.00;23.50;;;;;;;;5064279;28;8832;-80
2021/07/02 06:17:55;;;;;;;;;29.50;29.00;;;;;;;;5057565;28;8863;-82
2021/07/02 06:20:25;;;;;;;;;33.50;26.50;;;;;;;;5065203;28;8987;-78
2021/07/02 06:22:53;;;;;;;;;25.25;25.25;;;;;;;;5062812;28;8891;-80
2021/07/02 06:25:20;;;;;;;;;30.75;30.00;;;;;;;;5059600;28;9711;-78
2021/07/02 06:27:48;;;;;;;;;29.50;28.00;;;;;;;;5064492;28;8874;-76
2021/07/02 06:30:16;;;;;;;;;27.00;26.75;;;;;;;;5063493;28;8868;-78
2021/07/02 06:32:45;;;;;;;;;27.00;26.00;;;;;;;;5064300;28;8887;-75
2021/07/02 06:35:13;;;;;;;;;30.75;30.00;;;;;;;;5062406;28;8874;-77
2021/07/02 06:37:47;;;;;;;;;30.00;28.50;;;;;;;;5070177;28;8858;-78
2021/07/02 06:40:15;;;;;;;;;34.00;28.50;;;;;;;;5055537;28;8864;-78
2021/07/02 06:42:42;;;;;;;;;35.75;31.75;;;;;;;;5064269;28;8884;-77
2021/07/02 06:45:12;;;;;;;;;32.25;29.00;;;;;;;;5062359;28;8959;-79
2021/07/02 06:47:58;;;;;;;;;29.00;29.00;;;;;;;;5063013;28;8860;-79
2021/07/02 06:50:27;;;;;;;;;27.50;27.50;;;;;;;;5058529;28;8976;-77
2021/07/02 06:52:54;;;;;;;;;33.00;32.00;;;;;;;;5062403;28;8929;-79
2021/07/02 06:55:22;;;;;;;;;36.75;34.00;;;;;;;;5064126;28;8935;-77
2021/07/02 06:57:49;;;;;;;;;32.25;29.25;;;;;;;;5044920;28;8969;-77
2021/07/02 07:00:18;;;;;;;;;30.25;28.75;;;;;;;;5062947;28;8856;-78
2021/07/02 07:02:46;;;;;;;;;27.00;26.25;;;;;;;;5063180;28;8840;-77
2021/07/02 07:05:16;;;;;;;;;35.00;31.75;;;;;;;;5062664;28;9100;-77
2021/07/02 07:07:43;;;;;;;;;29.00;28.75;;;;;;;;5063567;28;8975;-78
2021/07/02 07:10:11;;;;;;;;;26.25;24.50;;;;;;;;5061830;28;8865;-77
2021/07/02 07:12:39;;;;;;;;;35.75;30.75;;;;;;;;5063548;28;8867;-83
2021/07/02 07:15:07;;;;;;;;;28.00;24.25;;;;;;;;5061427;28;8861;-81
2021/07/02 07:17:35;;;;;;;;;37.25;31.50;;;;;;;;5063027;28;8864;-77
2021/07/02 07:20:02;;;;;;;;;29.00;27.75;;;;;;;;5032235;28;8891;-78
2021/07/02 07:22:31;;;;;;;;;31.25;31.00;;;;;;;;5061682;28;8872;-76
2021/07/02 07:24:59;;;;;;;;;28.25;27.25;;;;;;;;5061918;28;8871;-78
2021/07/02 07:27:26;;;;;;;;;32.75;30.25;;;;;;;;5061107;28;8895;-79
2021/07/02 07:29:54;;;;;;;;;35.25;28.50;;;;;;;;5063279;28;8861;-78
2021/07/02 07:32:21;;;;;;;;;32.75;29.50;;;;;;;;5049282;28;8863;-78
2021/07/02 07:34:52;;;;;;;;;24.00;22.75;;;;;;;;5063138;28;8865;-77
2021/07/02 07:37:20;;;;;;;;;22.75;21.25;;;;;;;;5060498;28;8864;-80
2021/07/02 07:39:49;;;;;;;;;23.00;23.00;;;;;;;;5058379;28;8869;-81
2021/07/02 07:42:17;;;;;;;;;24.00;24.00;;;;;;;;5063188;28;9608;-76
2021/07/02 07:44:45;;;;;;;;;19.60;18.80;;;;;;;;5037433;28;8916;-79
2021/07/02 07:47:13;;;;;;;;;13.40;13.40;;;;;;;;5058974;28;8880;-79
2021/07/02 07:49:42;;;;;;;;;12.80;12.80;;;;;;;;5060184;28;8882;-78
2021/07/02 07:52:15;;;;;;;;;15.40;15.20;;;;;;;;5060879;28;8880;-82
2021/07/02 07:54:43;;;;;;;;;14.80;14.80;;;;;;;;5060042;28;8848;-77
2021/07/02 07:57:12;;;;;;;;;14.20;12.00;;;;;;;;5063105;28;8854;-79
2021/07/02 07:59:39;;;;;;;;;14.80;14.80;;;;;;;;5066336;28;8978;-79
2021/07/02 08:02:07;;;;;;;;;14.40;13.60;;;;;;;;5063450;28;8862;-80
2021/07/02 08:04:34;;;;;;;;;10.00;10.00;;;;;;;;5066122;28;8848;-78
2021/07/02 08:07:01;;;;;;;;;10.00;7.00;;;;;;;;5064030;28;8883;-80
2021/07/02 08:09:30;;;;;;;;;12.20;10.60;;;;;;;;5064654;28;8857;-77
2021/07/02 08:11:57;;;;;;;;;14.80;12.80;;;;;;;;5061546;28;8895;-77
2021/07/02 08:14:25;;;;;;;;;9.00;9.00;;;;;;;;5064559;28;8872;-77
2021/07/02 08:16:53;;;;;;;;;12.20;10.80;;;;;;;;5058801;28;8845;-77
2021/07/02 08:19:20;;;;;;;;;12.80;11.60;;;;;;;;5063729;28;8876;-76
2021/07/02 08:21:48;;;;;;;;;13.20;13.20;;;;;;;;5048120;28;9713;-76
2021/07/02 08:24:15;;;;;;;;;13.20;12.00;;;;;;;;5065147;28;8858;-77
2021/07/02 08:26:43;;;;;;;;;11.00;10.60;;;;;;;;5071390;28;8875;-78
2021/07/02 08:29:26;;;;;;;;;13.80;13.80;;;;;;;;5067811;28;8862;-75
2021/07/02 08:31:55;;;;;;;;;12.80;12.80;;;;;;;;5066455;28;8825;-77
2021/07/02 08:34:23;;;;;;;;;14.80;13.20;;;;;;;;5066824;28;8852;-76
2021/07/02 08:36:50;;;;;;;;;17.20;17.20;;;;;;;;5065671;28;8880;-76
2021/07/02 08:39:18;;;;;;;;;19.20;16.00;;;;;;;;5048206;28;8885;-76
2021/07/02 08:41:46;;;;;;;;;13.60;13.60;;;;;;;;5065175;28;8856;-74
2021/07/02 08:44:13;;;;;;;;;17.20;16.00;;;;;;;;5065909;28;8945;-75
2021/07/02 08:46:42;;;;;;;;;15.00;15.00;;;;;;;;5064448;28;8856;-78
2021/07/02 08:49:12;;;;;;;;;16.20;15.00;;;;;;;;5065003;28;8870;-75
2021/07/02 08:51:39;;;;;;;;;14.40;14.40;;;;;;;;5063700;28;8941;-76
2021/07/02 08:54:08;;;;;;;;;15.00;13.40;;;;;;;;5062893;28;8854;-78
2021/07/02 08:56:35;;;;;;;;;12.80;11.00;;;;;;;;5064588;28;8844;-75
2021/07/02 08:59:03;;;;;;;;;14.60;13.40;;;;;;;;5060737;28;8848;-77
2021/07/02 09:01:39;;;;;;;;;10.00;10.00;;;;;;;;5064172;28;9606;-77
2021/07/02 09:04:19;;;;;;;;;10.80;10.80;;;;;;;;5061771;28;8860;-78
2021/07/02 09:07:07;;;;;;;;;10.60;10.60;;;;;;;;5063748;28;8872;-79
2021/07/02 09:09:49;;;;;;;;;13.20;12.60;;;;;;;;5064954;28;8887;-77
2021/07/02 09:12:18;;;;;;;;;9.80;7.20;;;;;;;;5063860;28;9672;-77
2021/07/02 09:15:05;;;;;;;;;12.40;12.40;;;;;;;;5065344;28;8889;-77
2021/07/02 09:17:34;;;;;;;;;13.40;13.40;;;;;;;;5065553;28;8850;-81
2021/07/02 09:20:22;;;;;;;;;11.80;11.80;;;;;;;;5057093;28;8876;-82
2021/07/02 09:22:50;;;;;;;;;9.00;9.00;;;;;;;;5065175;28;8879;-81
2021/07/02 09:25:26;;;;;;;;;9.60;8.60;;;;;;;;5064307;28;8844;-77
2021/07/02 09:27:57;;;;;;;;;13.60;13.60;;;;;;;;5065152;28;8858;-78
2021/07/02 09:30:27;;;;;;;;;12.80;11.20;;;;;;;;5063858;28;8796;-79
2021/07/02 09:32:55;;;;;;;;;12.00;11.40;;;;;;;;5063243;28;8872;-80
2021/07/02 09:35:29;;;;;;;;;13.80;13.80;;;;;;;;5063785;28;8840;-77
2021/07/02 09:37:59;;;;;;;;;9.20;9.20;;;;;;;;5063404;28;8861;-77
2021/07/02 09:40:27;;;;;;;;;10.20;10.20;;;;;;;;5042214;28;8918;-75
2021/07/02 09:43:01;;;;;;;;;9.00;9.00;;;;;;;;5062585;28;8966;-76
2021/07/02 09:45:29;;;;;;;;;8.40;8.40;;;;;;;;5063371;28;8880;-75
2021/07/02 09:47:56;;;;;;;;;10.00;10.00;;;;;;;;5062783;28;8876;-82
2021/07/02 09:50:27;;;;;;;;;8.80;8.80;;;;;;;;5058502;28;8879;-77
2021/07/02 09:52:59;;;;;;;;;8.40;8.40;;;;;;;;5062788;28;8957;-79
2021/07/02 09:55:28;;;;;;;;;10.80;10.40;;;;;;;;5062544;28;8912;-82
2021/07/02 09:58:15;;;;;;;;;8.80;7.20;;;;;;;;5063089;28;8879;-79
2021/07/02 10:00:44;;;;;;;;;7.60;7.60;;;;;;;;5063476;28;8783;-79
2021/07/02 10:03:12;;;;;;;;;10.80;9.00;;;;;;;;5063631;28;8880;-81
2021/07/02 10:05:55;;;;;;;;;8.00;8.00;;;;;;;;5063918;28;8846;-80
2021/07/02 10:08:25;;;;;;;;;6.20;6.20;;;;;;;;5062792;28;8884;-81
2021/07/02 10:10:53;;;;;;;;;5.40;5.40;;;;;;;;5064701;28;8871;-81
2021/07/02 10:13:23;;;;;;;;;6.20;6.20;;;;;;;;5060339;28;8984;-78
2021/07/02 10:15:51;;;;;;;;;7.00;7.00;;;;;;;;5044113;28;8904;-78
2021/07/02 10:18:19;;;;;;;;;5.80;5.80;;;;;;;;5062284;28;8864;-75
2021/07/02 10:20:48;;;;;;;;;5.40;5.40;;;;;;;;5061451;28;8840;-77
2021/07/02 10:23:26;;;;;;;;;6.40;6.40;;;;;;;;5062943;28;8870;-78
2021/07/02 10:25:55;;;;;;;;;6.20;6.20;;;;;;;;5062210;28;8852;-77
2021/07/02 10:28:24;;;;;;;;;7.80;6.40;;;;;;;;5060179;28;9641;-77
2021/07/02 10:30:51;;;;;;;;;6.40;6.40;;;;;;;;5060301;28;8808;-74
2021/07/02 10:33:21;;;;;;;;;7.00;7.00;;;;;;;;5062896;28;8879;-78
2021/07/02 10:35:53;;;;;;;;;6.80;6.80;;;;;;;;5062283;28;8849;-75
2021/07/02 10:38:21;;;;;;;;;7.00;7.00;;;;;;;;5061311;28;8862;-75
2021/07/02 10:40:51;;;;;;;;;3.00;3.00;;;;;;;;5060942;28;8890;-74
2021/07/02 10:43:22;;;;;;;;;4.40;4.40;;;;;;;;5059890;28;8876;-73
2021/07/02 10:46:12;;;;;;;;;6.00;6.00;;;;;;;;5058082;28;8890;-77
2021/07/02 10:49:06;;;;;;;;;6.40;6.40;;;;;;;;5042341;28;8930;-76
2021/07/02 10:51:44;;;;;;;;;9.40;9.40;;;;;;;;5060235;28;9618;-78
2021/07/02 10:54:33;;;;;;;;;8.00;8.00;;;;;;;;5061458;28;8872;-77
2021/07/02 10:57:04;;;;;;;;;10.20;8.20;;;;;;;;5060649;28;8894;-77
2021/07/02 11:00:15;;;;;;;;;8.00;8.00;;;;;;;;5060073;28;8876;-76
2021/07/02 11:02:43;;;;;;;;;9.40;8.20;;;;;;;;5057290;28;8870;-76
2021/07/02 11:05:28;;;;;;;;;11.00;8.60;;;;;;;;5042779;28;8860;-76
2021/07/02 11:07:57;;;;;;;;;11.00;10.20;;;;;;;;5061459;28;8884;-79
2021/07/02 11:10:25;;;;;;;;;8.80;8.00;;;;;;;;5060472;28;8844;-81
2021/07/02 11:13:06;;;;;;;;;8.60;8.60;;;;;;;;5041924;28;8844;-80
2021/07/02 11:15:33;;;;;;;;;9.40;7.80;;;;;;;;5061329;28;8888;-78
2021/07/02 11:18:17;;;;;;;;;8.00;8.00;;;;;;;;5057288;28;8882;-79
2021/07/02 11:20:46;;;;;;;;;9.20;9.20;;;;;;;;5060954;28;8872;-80
2021/07/02 11:23:21;;;;;;;;;8.00;8.00;;;;;;;;5065024;28;8883;-84
2021/07/02 11:26:14;;;;;;;;;10.00;10.00;;;;;;;;5065249;28;9133;-82
2021/07/02 11:28:49;;;;;;;;;9.60;9.60;;;;;;;;5061356;28;8848;-79
2021/07/02 11:31:36;;;;;;;;;7.00;7.00;;;;;;;;5059326;28;8828;-79
2021/07/02 11:34:16;;;;;;;;;9.60;9.60;;;;;;;;5063363;28;8857;-79
2021/07/02 11:37:11;;;;;;;;;9.00;9.00;;;;;;;;5063429;28;8852;-80
2021/07/02 11:39:40;;;;;;;;;9.40;9.40;;;;;;;;5064533;28;9006;-78
2021/07/02 11:42:20;;;;;;;;;9.00;9.00;;;;;;;;5066923;28;8856;-86
2021/07/02 11:44:49;;;;;;;;;9.40;9.40;;;;;;;;5064429;28;8856;-84
2021/07/02 11:47:17;;;;;;;;;9.80;9.80;;;;;;;;5065581;28;8886;-85
2021/07/02 11:49:51;;;;;;;;;9.40;9.40;;;;;;;;5064538;28;8868;-80
2021/07/02 11:52:20;;;;;;;;;10.20;8.60;;;;;;;;5065301;28;8864;-80
2021/07/02 11:54:52;;;;;;;;;9.40;8.00;;;;;;;;5066235;28;8970;-76
2021/07/02 11:57:25;;;;;;;;;8.20;8.00;;;;;;;;5046045;28;9653;-80
2021/07/02 12:00:05;;;;;;;;;8.00;8.00;;;;;;;;5065597;28;8848;-82
2021/07/02 12:02:32;;;;;;;;;6.00;6.00;;;;;;;;5063967;28;8820;-78
2021/07/02 12:05:08;;;;;;;;;9.80;9.80;;;;;;;;5065954;28;8864;-77
2021/07/02 12:07:35;;;;;;;;;9.60;9.60;;;;;;;;5066423;28;8852;-77
2021/07/02 12:10:03;;;;;;;;;8.00;8.00;;;;;;;;5064078;28;8852;-82
2021/07/02 12:12:31;;;;;;;;;10.40;8.60;;;;;;;;5066656;28;8971;-80
2021/07/02 12:14:59;;;;;;;;;6.20;6.20;;;;;;;;5050218;28;9042;-77
2021/07/02 12:17:27;;;;;;;;;7.40;7.20;;;;;;;;5068970;28;8965;-84
2021/07/02 12:19:55;;;;;;;;;9.00;7.20;;;;;;;;5068393;28;8982;-80
2021/07/02 12:22:22;;;;;;;;;9.40;6.80;;;;;;;;5067552;28;8856;-78
2021/07/02 12:24:51;;;;;;;;;8.00;8.00;;;;;;;;5051636;28;8948;-88
2021/07/02 12:27:20;;;;;;;;;7.40;7.40;;;;;;;;5070053;28;8861;-83
2021/07/02 12:29:53;;;;;;;;;8.80;8.80;;;;;;;;5069051;28;8859;-75
2021/07/02 12:32:23;;;;;;;;;6.80;6.80;;;;;;;;5047405;28;8828;-80
2021/07/02 12:34:52;;;;;;;;;11.00;9.40;;;;;;;;5049804;28;8868;-79
2021/07/02 12:37:21;;;;;;;;;9.20;8.00;;;;;;;;5064495;28;9630;-79
2021/07/02 12:39:50;;;;;;;;;12.20;10.80;;;;;;;;5064965;28;8937;-83
2021/07/02 12:42:20;;;;;;;;;9.40;9.40;;;;;;;;5066052;28;8967;-78
2021/07/02 12:44:51;;;;;;;;;9.80;9.80;;;;;;;;5064289;28;8910;-78
2021/07/02 12:47:19;;;;;;;;;9.60;9.60;;;;;;;;5065650;28;8844;-83
2021/07/02 12:49:48;;;;;;;;;8.80;8.80;;;;;;;;5064687;28;8945;-76
2021/07/02 12:55:18;;;;;;;;;9.60;9.60;;;;;;;;5064917;28;8833;-78
2021/07/02 12:57:54;;;;;;;;;7.80;7.80;;;;;;;;5067618;28;8986;-90
2021/07/02 13:00:29;;;;;;;;;9.80;9.80;;;;;;;;5067276;28;9597;-86
2021/07/02 13:02:59;;;;;;;;;7.00;7.00;;;;;;;;5063843;28;8891;-88
2021/07/02 13:05:32;;;;;;;;;10.60;8.00;;;;;;;;5067661;28;8915;-92
2021/07/02 13:08:00;;;;;;;;;7.60;7.60;;;;;;;;5063826;28;8894;-89
2021/07/02 13:10:33;;;;;;;;;10.00;7.00;;;;;;;;5066518;28;8856;-89
2021/07/02 13:13:14;;;;;;;;;7.00;7.00;;;;;;;;5066876;28;8982;-89
2021/07/02 13:16:06;;;;;;;;;10.00;10.00;;;;;;;;5063453;28;8864;-81
2021/07/02 13:18:35;;;;;;;;;6.00;6.00;;;;;;;;5066818;28;9726;-93
2021/07/02 13:21:04;;;;;;;;;8.00;8.00;;;;;;;;5066715;28;8929;-89
2021/07/02 13:23:33;;;;;;;;;8.00;8.00;;;;;;;;5049601;28;8863;-89
2021/07/02 13:26:09;;;;;;;;;5.60;5.60;;;;;;;;5067109;28;8990;-85
2021/07/02 13:28:38;;;;;;;;;7.00;7.00;;;;;;;;5065050;28;8883;-80
2021/07/02 13:31:27;;;;;;;;;7.20;7.20;;;;;;;;5066055;28;8800;-90
2021/07/02 13:34:09;;;;;;;;;2.00;2.00;;;;;;;;5064049;28;8860;-80
2021/07/02 13:36:42;;;;;;;;;6.40;6.40;;;;;;;;5065668;28;8975;-82
2021/07/02 13:39:12;;;;;;;;;10.20;8.80;;;;;;;;5061106;28;8903;-83
2021/07/02 13:41:40;;;;;;;;;8.60;7.00;;;;;;;;5065367;28;8931;-90
2021/07/02 13:44:10;;;;;;;;;7.80;7.80;;;;;;;;5066018;28;8864;-87
2021/07/02 13:46:38;;;;;;;;;8.20;8.20;;;;;;;;5064753;28;8902;-85
2021/07/02 13:49:06;;;;;;;;;7.00;7.00;;;;;;;;5063219;28;8980;-92
2021/07/02 13:51:34;;;;;;;;;7.80;7.80;;;;;;;;5066731;28;8987;-90
2021/07/02 13:54:06;;;;;;;;;7.60;7.60;;;;;;;;5065222;28;8941;-90
2021/07/02 13:56:34;;;;;;;;;8.40;8.40;;;;;;;;5048431;28;8848;-85
2021/07/02 13:59:01;;;;;;;;;7.80;7.60;;;;;;;;5061400;28;9048;-80
2021/07/02 14:01:28;;;;;;;;;9.60;9.60;;;;;;;;5064707;28;8921;-85
2021/07/02 14:03:57;;;;;;;;;8.80;8.80;;;;;;;;5045068;28;8888;-81
2021/07/02 14:06:25;;;;;;;;;9.80;8.60;;;;;;;;5065784;28;8868;-85
2021/07/02 14:08:52;;;;;;;;;9.20;9.20;;;;;;;;5064589;28;9664;-78
2021/07/02 14:11:20;;;;;;;;;7.00;6.80;;;;;;;;5064649;28;8876;-79
2021/07/02 14:13:47;;;;;;;;;9.00;7.20;;;;;;;;5064249;28;8957;-76
2021/07/02 14:16:15;;;;;;;;;11.20;10.00;;;;;;;;5064746;28;8882;-81
2021/07/02 14:18:43;;;;;;;;;10.20;10.20;;;;;;;;5064810;28;8996;-83
2021/07/02 14:21:12;;;;;;;;;8.80;8.80;;;;;;;;5081967;28;9661;-87
2021/07/02 14:23:39;;;;;;;;;6.00;6.00;;;;;;;;5070594;28;9003;-83
2021/07/02 14:26:07;;;;;;;;;8.00;8.00;;;;;;;;5066753;28;10299;-81
2021/07/02 14:28:35;;;;;;;;;7.60;7.60;;;;;;;;5063595;28;8903;-75
2021/07/02 14:31:03;;;;;;;;;10.00;9.00;;;;;;;;5063785;28;8808;-80
2021/07/02 14:33:32;;;;;;;;;9.20;8.00;;;;;;;;5062762;28;8890;-78
2021/07/02 14:36:00;;;;;;;;;9.00;9.00;;;;;;;;5063663;28;8860;-76
2021/07/02 14:38:30;;;;;;;;;4.20;4.20;;;;;;;;5062764;28;8853;-77
2021/07/02 14:40:58;;;;;;;;;11.00;11.00;;;;;;;;5063903;28;8879;-80
2021/07/02 14:43:26;;;;;;;;;12.00;10.20;;;;;;;;5062195;28;8884;-81
2021/07/02 14:45:54;;;;;;;;;9.80;9.80;;;;;;;;5063335;28;8892;-79
2021/07/02 14:48:24;;;;;;;;;12.20;8.40;;;;;;;;5063463;28;8849;-81
2021/07/02 14:50:51;;;;;;;;;7.00;7.00;;;;;;;;5063302;28;8864;-77
2021/07/02 14:53:19;;;;;;;;;10.60;10.60;;;;;;;;5064144;28;8837;-77
2021/07/02 14:55:48;;;;;;;;;10.20;9.40;;;;;;;;5044092;28;9883;-78